Time,TemperatureF,DewpointF,PressureIn,WindDirection,WindDirectionDegrees,WindSpeedMPH,WindSpeedGustMPH,Humidity,HourlyPrecipIn,Conditions,Clouds,dailyrainin,SoftwareType,DateUTC
2013-05-25 00:02:00,60.4,55.0,25.20,East,101,2.0,7.0,82,0.00,,,0.00,weatherlink.com 1.10,2013-05-25 06:02:00,
2013-05-25 00:17:00,61.0,56.0,25.20,ENE,61,2.0,9.0,82,0.00,,,0.00,weatherlink.com 1.10,2013-05-25 06:17:00,
2013-05-25 00:32:00,61.2,55.0,25.19,ENE,61,3.0,6.0,81,0.00,,,0.00,weatherlink.com 1.10,2013-05-25 06:32:00,
2013-05-25 00:47:00,60.8,55.0,25.19,NE,43,2.0,6.0,81,0.00,,,0.00,weatherlink.com 1.10,2013-05-25 06:47:00,
2013-05-25 01:02:00,60.1,54.0,25.18,ESE,105,1.0,6.0,81,0.00,,,0.00,weatherlink.com 1.10,2013-05-25 07:02:00,
2013-05-25 01:17:00,59.3,54.0,25.17,NE,51,1.0,3.0,82,0.00,,,0.00,weatherlink.com 1.10,2013-05-25 07:17:00,
2013-05-25 01:32:00,58.9,54.0,25.18,NE,45,4.0,6.0,84,0.00,,,0.00,weatherlink.com 1.10,2013-05-25 07:32:00,
2013-05-25 01:47:00,58.8,54.0,25.18,NE,45,5.0,6.0,84,0.00,,,0.00,weatherlink.com 1.10,2013-05-25 07:47:00,
2013-05-25 02:03:00,58.2,54.0,25.18,ENE,70,0.0,4.0,86,0.00,,,0.00,weatherlink.com 1.10,2013-05-25 08:03:00,
2013-05-25 02:17:00,58.0,54.0,25.18,ENE,72,3.0,3.0,86,0.00,,,0.00,weatherlink.com 1.10,2013-05-25 08:17:00,
2013-05-25 02:32:00,57.2,54.0,25.18,NNE,33,2.0,5.0,89,0.00,,,0.00,weatherlink.com 1.10,2013-05-25 08:32:00,
2013-05-25 02:47:00,56.8,54.0,25.18,ESE,117,2.0,4.0,90,0.00,,,0.00,weatherlink.com 1.10,2013-05-25 08:47:00,
2013-05-25 03:02:00,56.3,54.0,25.18,NNE,14,0.0,3.0,92,0.00,,,0.00,weatherlink.com 1.10,2013-05-25 09:02:00,
2013-05-25 03:17:00,56.1,54.0,25.18,NE,35,0.0,3.0,93,0.00,,,0.00,weatherlink.com 1.10,2013-05-25 09:17:00,
2013-05-25 03:32:00,56.0,54.0,25.19,North,356,2.0,5.0,94,0.00,,,0.00,weatherlink.com 1.10,2013-05-25 09:32:00,
2013-05-25 03:47:00,55.8,54.0,25.19,NNE,26,4.0,7.0,95,0.00,,,0.00,weatherlink.com 1.10,2013-05-25 09:47:00,
2013-05-25 04:02:00,55.5,54.0,25.20,NNE,19,5.0,8.0,96,0.00,,,0.00,weatherlink.com 1.10,2013-05-25 10:02:00,
2013-05-25 04:17:00,55.7,55.0,25.20,NNE,31,5.0,9.0,96,0.00,,,0.00,weatherlink.com 1.10,2013-05-25 10:17:00,
2013-05-25 04:33:00,55.7,54.0,25.21,NE,34,5.0,9.0,95,0.00,,,0.00,weatherlink.com 1.10,2013-05-25 10:33:00,
2013-05-25 04:48:00,55.8,54.0,25.22,East,101,0.0,3.0,95,0.00,,,0.00,weatherlink.com 1.10,2013-05-25 10:48:00,
2013-05-25 05:03:00,55.9,55.0,25.22,NNE,33,4.0,5.0,96,0.00,,,0.00,weatherlink.com 1.10,2013-05-25 11:03:00,
2013-05-25 05:18:00,55.9,55.0,25.21,NE,39,2.0,3.0,96,0.00,,,0.00,weatherlink.com 1.10,2013-05-25 11:18:00,
2013-05-25 05:33:00,56.1,55.0,25.22,NE,50,3.0,3.0,95,0.00,,,0.00,weatherlink.com 1.10,2013-05-25 11:33:00,
2013-05-25 05:48:00,56.3,55.0,25.23,ENE,70,1.0,3.0,94,0.00,,,0.00,weatherlink.com 1.10,2013-05-25 11:48:00,
2013-05-25 06:03:00,56.4,55.0,25.23,NE,50,1.0,2.0,94,0.00,,,0.00,weatherlink.com 1.10,2013-05-25 12:03:00,
2013-05-25 06:18:00,56.6,55.0,25.23,NE,50,0.0,1.0,94,0.00,,,0.00,weatherlink.com 1.10,2013-05-25 12:18:00,
2013-05-25 06:33:00,57.4,55.0,25.23,South,181,0.0,2.0,93,0.00,,,0.00,weatherlink.com 1.10,2013-05-25 12:33:00,
2013-05-25 06:48:00,57.8,56.0,25.24,South,181,0.0,1.0,92,0.00,,,0.00,weatherlink.com 1.10,2013-05-25 12:48:00,
2013-05-25 07:03:00,58.4,56.0,25.24,SSW,202,0.0,1.0,91,0.00,,,0.00,weatherlink.com 1.10,2013-05-25 13:03:00,
2013-05-25 07:18:00,59.4,56.0,25.23,SE,143,0.0,1.0,89,0.00,,,0.00,weatherlink.com 1.10,2013-05-25 13:18:00,
2013-05-25 07:33:00,60.3,57.0,25.23,NNE,32,2.0,3.0,87,0.00,,,0.00,weatherlink.com 1.10,2013-05-25 13:33:00,
2013-05-25 07:48:00,60.7,56.0,25.23,SW,219,1.0,6.0,84,0.00,,,0.00,weatherlink.com 1.10,2013-05-25 13:48:00,
2013-05-25 08:03:00,61.5,56.0,25.23,ESE,122,5.0,7.0,83,0.00,,,0.00,weatherlink.com 1.10,2013-05-25 14:03:00,
2013-05-25 08:18:00,61.4,56.0,25.23,SE,144,0.0,8.0,82,0.00,,,0.00,weatherlink.com 1.10,2013-05-25 14:18:00,
2013-05-25 08:33:00,62.4,56.0,25.23,West,269,2.0,5.0,79,0.00,,,0.00,weatherlink.com 1.10,2013-05-25 14:33:00,
2013-05-25 08:48:00,63.8,57.0,25.23,SW,222,0.0,3.0,78,0.00,,,0.00,weatherlink.com 1.10,2013-05-25 14:48:00,
2013-05-25 09:03:00,67.4,56.0,25.23,SW,221,0.0,5.0,68,0.00,,,0.00,weatherlink.com 1.10,2013-05-25 15:03:00,
2013-05-25 09:18:00,69.0,57.0,25.23,North,9,4.0,4.0,65,0.00,,,0.00,weatherlink.com 1.10,2013-05-25 15:18:00,
2013-05-25 09:33:00,70.1,57.0,25.22,SSE,153,1.0,2.0,63,0.00,,,0.00,weatherlink.com 1.10,2013-05-25 15:33:00,
2013-05-25 09:48:00,71.7,56.0,25.22,SSW,210,1.0,2.0,59,0.00,,,0.00,weatherlink.com 1.10,2013-05-25 15:48:00,
2013-05-25 10:03:00,72.7,56.0,25.22,NNE,28,3.0,5.0,57,0.00,,,0.00,weatherlink.com 1.10,2013-05-25 16:03:00,
2013-05-25 10:18:00,75.0,57.0,25.22,NNE,26,1.0,5.0,53,0.00,,,0.00,weatherlink.com 1.10,2013-05-25 16:18:00,
2013-05-25 10:33:00,76.6,57.0,25.22,NE,41,2.0,5.0,51,0.00,,,0.00,weatherlink.com 1.10,2013-05-25 16:33:00,
2013-05-25 10:48:00,76.1,57.0,25.21,NE,41,2.0,5.0,51,0.00,,,0.00,weatherlink.com 1.10,2013-05-25 16:48:00,
2013-05-25 11:03:00,77.9,57.0,25.21,East,99,1.0,8.0,49,0.00,,,0.00,weatherlink.com 1.10,2013-05-25 17:03:00,
2013-05-25 11:18:00,78.8,57.0,25.21,NE,38,4.0,10.0,47,0.00,,,0.00,weatherlink.com 1.10,2013-05-25 17:18:00,
2013-05-25 11:33:00,81.0,56.0,25.21,ESE,107,1.0,5.0,43,0.00,,,0.00,weatherlink.com 1.10,2013-05-25 17:33:00,
2013-05-25 11:48:00,81.3,55.0,25.20,ESE,111,4.0,10.0,40,0.00,,,0.00,weatherlink.com 1.10,2013-05-25 17:48:00,
2013-05-25 12:04:00,81.7,54.0,25.20,SW,231,9.0,17.0,39,0.00,,,0.00,weatherlink.com 1.10,2013-05-25 18:04:00,
2013-05-25 12:19:00,82.0,55.0,25.19,ESE,115,5.0,9.0,39,0.00,,,0.00,weatherlink.com 1.10,2013-05-25 18:19:00,
2013-05-25 12:34:00,80.9,52.0,25.19,SE,124,4.0,12.0,37,0.00,,,0.00,weatherlink.com 1.10,2013-05-25 18:34:00,
2013-05-25 12:49:00,79.7,50.0,25.18,SSE,168,1.0,7.0,36,0.00,,,0.00,weatherlink.com 1.10,2013-05-25 18:49:00,
2013-05-25 13:04:00,83.4,49.0,25.17,SSW,201,4.0,11.0,30,0.00,,,0.00,weatherlink.com 1.10,2013-05-25 19:04:00,
2013-05-25 13:19:00,84.2,40.0,25.17,SE,143,9.0,14.0,21,0.00,,,0.00,weatherlink.com 1.10,2013-05-25 19:19:00,
2013-05-25 13:34:00,84.3,33.0,25.17,SE,136,2.0,21.0,16,0.00,,,0.00,weatherlink.com 1.10,2013-05-25 19:34:00,
2013-05-25 13:49:00,85.3,34.0,25.16,SW,215,12.0,17.0,16,0.00,,,0.00,weatherlink.com 1.10,2013-05-25 19:49:00,
2013-05-25 14:04:00,85.9,36.0,25.16,SW,229,5.0,18.0,17,0.00,,,0.00,weatherlink.com 1.10,2013-05-25 20:04:00,
2013-05-25 14:19:00,85.5,37.0,25.16,SE,141,5.0,22.0,18,0.00,,,0.00,weatherlink.com 1.10,2013-05-25 20:19:00,
2013-05-25 14:34:00,85.2,40.0,25.16,SW,226,9.0,18.0,20,0.00,,,0.00,weatherlink.com 1.10,2013-05-25 20:34:00,
2013-05-25 14:49:00,85.0,42.0,25.16,SE,132,4.0,18.0,22,0.00,,,0.00,weatherlink.com 1.10,2013-05-25 20:49:00,
2013-05-25 15:04:00,84.5,44.0,25.16,SE,124,10.0,17.0,24,0.00,,,0.00,weatherlink.com 1.10,2013-05-25 21:04:00,
2013-05-25 15:19:00,84.1,47.0,25.16,SE,129,7.0,24.0,27,0.00,,,0.00,weatherlink.com 1.10,2013-05-25 21:19:00,
2013-05-25 15:34:00,84.0,48.0,25.16,SW,215,7.0,18.0,29,0.00,,,0.00,weatherlink.com 1.10,2013-05-25 21:34:00,
2013-05-25 15:49:00,83.6,48.0,25.15,SSW,205,8.0,22.0,29,0.00,,,0.00,weatherlink.com 1.10,2013-05-25 21:49:00,
2013-05-25 16:04:00,83.7,47.0,25.15,SSW,210,6.0,25.0,28,0.00,,,0.00,weatherlink.com 1.10,2013-05-25 22:04:00,
2013-05-25 16:19:00,84.5,47.0,25.14,ESE,114,9.0,20.0,27,0.00,,,0.00,weatherlink.com 1.10,2013-05-25 22:19:00,
2013-05-25 16:34:00,84.7,47.0,25.14,ESE,121,8.0,22.0,27,0.00,,,0.00,weatherlink.com 1.10,2013-05-25 22:34:00,
2013-05-25 16:49:00,84.7,47.0,25.14,SSW,195,9.0,18.0,27,0.00,,,0.00,weatherlink.com 1.10,2013-05-25 22:49:00,
2013-05-25 17:04:00,84.0,47.0,25.13,SSE,168,10.0,21.0,27,0.00,,,0.00,weatherlink.com 1.10,2013-05-25 23:04:00,
2013-05-25 17:19:00,84.1,46.0,25.13,SE,124,11.0,26.0,26,0.00,,,0.00,weatherlink.com 1.10,2013-05-25 23:19:00,
2013-05-25 17:34:00,84.5,45.0,25.13,SW,224,2.0,17.0,25,0.00,,,0.00,weatherlink.com 1.10,2013-05-25 23:34:00,
2013-05-25 17:49:00,84.5,44.0,25.12,East,82,5.0,16.0,24,0.00,,,0.00,weatherlink.com 1.10,2013-05-25 23:49:00,
2013-05-25 18:04:00,84.6,44.0,25.12,South,191,10.0,14.0,24,0.00,,,0.00,weatherlink.com 1.10,2013-05-26 00:04:00,
2013-05-25 18:19:00,84.5,45.0,25.12,SE,126,6.0,12.0,25,0.00,,,0.00,weatherlink.com 1.10,2013-05-26 00:19:00,
2013-05-25 18:34:00,83.0,45.0,25.12,SW,217,4.0,10.0,26,0.00,,,0.00,weatherlink.com 1.10,2013-05-26 00:34:00,
2013-05-25 18:49:00,81.7,46.0,25.12,SE,139,6.0,11.0,29,0.00,,,0.00,weatherlink.com 1.10,2013-05-26 00:49:00,
2013-05-25 19:04:00,81.7,46.0,25.12,ESE,114,2.0,8.0,29,0.00,,,0.00,weatherlink.com 1.10,2013-05-26 01:04:00,
2013-05-25 19:19:00,81.3,47.0,25.12,ESE,120,3.0,8.0,30,0.00,,,0.00,weatherlink.com 1.10,2013-05-26 01:19:00,
2013-05-25 19:34:00,80.7,47.0,25.12,SW,229,2.0,7.0,31,0.00,,,0.00,weatherlink.com 1.10,2013-05-26 01:34:00,
2013-05-25 19:49:00,78.5,46.0,25.12,SE,127,3.0,6.0,32,0.00,,,0.00,weatherlink.com 1.10,2013-05-26 01:49:00,
2013-05-25 20:04:00,76.1,46.0,25.12,SE,129,3.0,8.0,35,0.00,,,0.00,weatherlink.com 1.10,2013-05-26 02:04:00,
2013-05-25 20:19:00,74.1,45.0,25.12,SE,129,5.0,8.0,36,0.00,,,0.00,weatherlink.com 1.10,2013-05-26 02:19:00,
2013-05-25 20:34:00,72.4,45.0,25.12,ESE,119,7.0,7.0,37,0.00,,,0.00,weatherlink.com 1.10,2013-05-26 02:34:00,
2013-05-25 20:49:00,70.6,45.0,25.13,SE,146,6.0,7.0,40,0.00,,,0.00,weatherlink.com 1.10,2013-05-26 02:49:00,
2013-05-25 21:04:00,70.5,45.0,25.13,East,96,8.0,10.0,40,0.00,,,0.00,weatherlink.com 1.10,2013-05-26 03:04:00,
2013-05-25 21:19:00,69.3,45.0,25.14,NNE,33,0.0,3.0,42,0.00,,,0.00,weatherlink.com 1.10,2013-05-26 03:19:00,
2013-05-25 21:34:00,67.8,46.0,25.14,ESE,115,4.0,5.0,46,0.00,,,0.00,weatherlink.com 1.10,2013-05-26 03:34:00,
2013-05-25 21:49:00,67.6,48.0,25.14,SE,127,14.0,15.0,49,0.00,,,0.00,weatherlink.com 1.10,2013-05-26 03:49:00,
2013-05-25 22:04:00,68.1,49.0,25.14,South,190,6.0,11.0,50,0.00,,,0.00,weatherlink.com 1.10,2013-05-26 04:04:00,
2013-05-25 22:19:00,67.3,50.0,25.14,SE,146,7.0,15.0,54,0.00,,,0.00,weatherlink.com 1.10,2013-05-26 04:19:00,
2013-05-25 22:34:00,66.9,51.0,25.14,SSE,155,6.0,17.0,58,0.00,,,0.00,weatherlink.com 1.10,2013-05-26 04:34:00,
2013-05-25 22:49:00,66.2,52.0,25.14,ESE,121,7.0,10.0,60,0.00,,,0.00,weatherlink.com 1.10,2013-05-26 04:49:00,
2013-05-25 23:04:00,65.7,52.0,25.14,SW,225,4.0,11.0,62,0.00,,,0.00,weatherlink.com 1.10,2013-05-26 05:04:00,
2013-05-25 23:19:00,65.6,53.0,25.14,SSW,192,7.0,10.0,63,0.00,,,0.00,weatherlink.com 1.10,2013-05-26 05:19:00,
2013-05-25 23:34:00,65.0,53.0,25.14,SE,125,5.0,12.0,65,0.00,,,0.00,weatherlink.com 1.10,2013-05-26 05:34:00,
2013-05-25 23:49:00,64.3,53.0,25.14,SE,124,6.0,10.0,66,0.00,,,0.00,weatherlink.com 1.10,2013-05-26 05:49:00,